Time;durP1;ratioP1;P1;durP2;ratioP2;P2;SDS_P1;SDS_P2;PMS_P1;PMS_P2;Temp;Humidity;BMP_temperature;BMP_pressure;BME280_temperature;BME280_humidity;BME280_pressure;Samples;Min_cycle;Max_cycle;Signal;HPM_P1;HPM_P2
2023/09/04 00:00:33;;;;;;;6.78;6.15;;;18.00;99.90;;;;;;4993280;28;20478;-87
2023/09/04 00:02:58;;;;;;;6.75;6.15;;;18.00;99.90;;;;;;4981129;28;20023;-86
2023/09/04 00:05:24;;;;;;;7.30;6.70;;;18.00;99.90;;;;;;4976326;28;20360;-86
2023/09/04 00:07:50;;;;;;;6.72;6.22;;;18.30;99.90;;;;;;4987386;28;20018;-86
2023/09/04 00:10:15;;;;;;;7.03;6.45;;;18.00;99.90;;;;;;4995790;28;20058;-87
2023/09/04 00:12:41;;;;;;;6.20;5.60;;;17.90;99.90;;;;;;4995273;28;20109;-86
2023/09/04 00:15:07;;;;;;;7.05;6.45;;;18.20;99.90;;;;;;4995073;28;20500;-86
2023/09/04 00:17:33;;;;;;;6.53;6.03;;;17.80;99.90;;;;;;4995748;28;20439;-86
2023/09/04 00:19:58;;;;;;;5.78;5.38;;;17.80;99.90;;;;;;4995487;28;20045;-87
2023/09/04 00:22:27;;;;;;;7.00;6.10;;;17.90;99.90;;;;;;4995530;28;20467;-88
2023/09/04 00:24:53;;;;;;;6.45;5.93;;;18.20;99.90;;;;;;4995269;28;20034;-87
2023/09/04 00:27:19;;;;;;;6.53;5.97;;;18.00;99.90;;;;;;4993422;28;20085;-88
2023/09/04 00:29:45;;;;;;;6.88;6.28;;;18.10;99.90;;;;;;4993435;28;20475;-87
2023/09/04 00:32:11;;;;;;;6.65;5.82;;;18.00;99.90;;;;;;4987452;28;20053;-85
2023/09/04 00:34:37;;;;;;;6.53;6.03;;;18.00;99.90;;;;;;4975413;28;20471;-87
2023/09/04 00:37:04;;;;;;;7.07;6.57;;;18.30;99.90;;;;;;4988956;28;20117;-87
2023/09/04 00:39:29;;;;;;;6.53;6.07;;;17.80;99.90;;;;;;4993720;28;20034;-87
2023/09/04 00:41:55;;;;;;;7.07;6.47;;;17.80;99.90;;;;;;4978432;28;20031;-86
2023/09/04 00:44:20;;;;;;;7.47;6.72;;;17.70;99.90;;;;;;4977964;28;20023;-88
2023/09/04 00:46:46;;;;;;;6.82;6.32;;;17.80;99.90;;;;;;4974988;28;20030;-87
2023/09/04 00:49:12;;;;;;;8.45;7.35;;;17.80;99.90;;;;;;4984074;28;20173;-87
2023/09/04 00:51:39;;;;;;;6.45;5.85;;;17.70;99.90;;;;;;4993853;28;20034;-87
2023/09/04 00:54:07;;;;;;;6.80;6.30;;;17.70;99.90;;;;;;4994792;28;20101;-86
2023/09/04 00:56:33;;;;;;;6.70;6.10;;;17.70;99.90;;;;;;4975610;28;20034;-87
2023/09/04 00:58:59;;;;;;;6.72;6.22;;;17.60;99.90;;;;;;4992353;28;20034;-87
2023/09/04 01:01:26;;;;;;;6.55;6.05;;;17.60;99.90;;;;;;4982762;28;20031;-87
2023/09/04 01:03:51;;;;;;;7.03;6.53;;;17.60;99.90;;;;;;4975037;28;20090;-86
2023/09/04 01:06:17;;;;;;;6.13;5.63;;;17.90;99.90;;;;;;4975115;28;20484;-87
2023/09/04 01:08:42;;;;;;;6.72;6.13;;;17.90;99.90;;;;;;4978902;28;20022;-86
2023/09/04 01:11:23;;;;;;;6.30;5.80;;;17.50;99.90;;;;;;4977552;28;20030;-86
2023/09/04 01:13:54;;;;;;;7.45;6.82;;;17.40;99.90;;;;;;4990765;28;20305;-86
2023/09/04 01:16:22;;;;;;;6.18;5.78;;;17.40;99.90;;;;;;4982794;28;20027;-86
2023/09/04 01:18:48;;;;;;;6.93;6.22;;;17.60;99.90;;;;;;4974026;28;20026;-87
2023/09/04 01:21:14;;;;;;;6.78;6.10;;;18.10;99.90;;;;;;4975012;28;20053;-86
2023/09/04 01:23:39;;;;;;;6.88;6.38;;;17.20;99.90;;;;;;4956699;28;20470;-86
2023/09/04 01:26:08;;;;;;;6.80;6.30;;;17.20;99.90;;;;;;4974405;28;20463;-87
2023/09/04 01:28:40;;;;;;;6.97;6.40;;;17.20;99.90;;;;;;4974683;28;20415;-88
2023/09/04 01:31:32;;;;;;;6.82;6.32;;;17.20;99.90;;;;;;4982688;28;20034;-87
2023/09/04 01:34:11;;;;;;;7.82;7.22;;;17.20;99.90;;;;;;4992944;28;20022;-87
2023/09/04 01:36:39;;;;;;;8.13;7.32;;;17.20;99.90;;;;;;4974594;28;20023;-86
2023/09/04 01:39:06;;;;;;;8.35;7.55;;;18.00;99.90;;;;;;4974005;28;20471;-85
2023/09/04 01:41:31;;;;;;;7.93;7.32;;;16.90;99.90;;;;;;4986892;28;20483;-87
2023/09/04 01:43:57;;;;;;;8.05;7.25;;;16.90;99.90;;;;;;4993787;28;20064;-86
2023/09/04 01:46:23;;;;;;;7.70;7.00;;;16.90;99.90;;;;;;4993115;28;20121;-85
2023/09/04 01:48:49;;;;;;;8.88;6.82;;;16.80;99.90;;;;;;4993702;28;20038;-86
2023/09/04 01:51:15;;;;;;;7.68;6.97;;;16.80;99.90;;;;;;4993550;28;20544;-86
2023/09/04 01:53:41;;;;;;;7.60;6.93;;;16.70;99.90;;;;;;4991068;28;20033;-86
2023/09/04 01:56:07;;;;;;;6.47;6.03;;;17.20;99.90;;;;;;4993441;28;20497;-86
2023/09/04 01:58:33;;;;;;;6.53;5.72;;;16.70;99.90;;;;;;4976588;28;20035;-86
2023/09/04 02:00:58;;;;;;;7.93;5.68;;;16.70;99.90;;;;;;4977245;28;20418;-86
2023/09/04 02:03:24;;;;;;;6.55;5.93;;;16.60;99.90;;;;;;4993754;28;20610;-87
2023/09/04 02:05:49;;;;;;;7.50;6.32;;;16.90;99.90;;;;;;4993242;28;20050;-85
2023/09/04 02:08:15;;;;;;;5.70;5.20;;;16.70;99.90;;;;;;4992998;28;20026;-87
2023/09/04 02:10:41;;;;;;;8.38;5.90;;;16.60;99.90;;;;;;4974563;28;20037;-87
2023/09/04 02:13:08;;;;;;;6.15;5.22;;;16.60;99.90;;;;;;4974057;28;20027;-87
2023/09/04 02:15:35;;;;;;;6.30;5.70;;;16.60;99.90;;;;;;4973448;28;20026;-85
2023/09/04 02:18:03;;;;;;;6.22;5.72;;;16.50;99.90;;;;;;4987291;28;20156;-86
2023/09/04 02:20:30;;;;;;;6.88;6.10;;;16.50;99.90;;;;;;4985980;28;20027;-85
2023/09/04 02:22:55;;;;;;;7.50;5.28;;;16.50;99.90;;;;;;4983875;28;20034;-85
2023/09/04 02:25:21;;;;;;;5.70;5.30;;;16.50;99.90;;;;;;4990647;28;20793;-86
2023/09/04 02:27:47;;;;;;;6.00;5.45;;;16.50;99.90;;;;;;4972649;28;20039;-86
2023/09/04 02:30:12;;;;;;;6.00;5.40;;;17.30;99.90;;;;;;4973200;28;20110;-86
2023/09/04 02:32:38;;;;;;;5.68;5.22;;;16.50;99.90;;;;;;4973575;28;20026;-85
2023/09/04 02:35:04;;;;;;;6.10;5.63;;;16.50;99.90;;;;;;4988130;28;20462;-85
2023/09/04 02:37:29;;;;;;;5.88;5.47;;;16.50;99.90;;;;;;4992741;28;20026;-86
2023/09/04 02:39:56;;;;;;;5.78;5.38;;;16.40;99.90;;;;;;4978904;28;20523;-85
2023/09/04 02:42:21;;;;;;;7.20;5.47;;;16.40;99.90;;;;;;4981225;28;20030;-86
2023/09/04 02:44:47;;;;;;;5.93;5.40;;;16.50;99.90;;;;;;4992662;28;21123;-86
2023/09/04 02:47:12;;;;;;;7.32;5.70;;;16.50;99.90;;;;;;4992731;28;20097;-85
2023/09/04 02:49:38;;;;;;;7.18;4.80;;;16.50;99.90;;;;;;4992025;28;20109;-85
2023/09/04 02:52:04;;;;;;;5.80;5.40;;;17.00;99.90;;;;;;4992848;28;20105;-85
2023/09/04 02:54:29;;;;;;;6.70;6.13;;;16.60;99.90;;;;;;4992581;28;20023;-86
2023/09/04 02:56:55;;;;;;;5.93;5.38;;;16.60;99.90;;;;;;4989631;28;20128;-86
2023/09/04 02:59:20;;;;;;;6.28;5.78;;;16.50;99.90;;;;;;4972976;28;20031;-88
2023/09/04 03:01:49;;;;;;;5.80;5.30;;;16.50;99.90;;;;;;4972604;28;20018;-85
2023/09/04 03:04:15;;;;;;;5.68;5.28;;;16.40;99.90;;;;;;4972416;28;20041;-86
2023/09/04 03:06:41;;;;;;;6.53;5.95;;;16.40;99.90;;;;;;4972642;28;20054;-85
2023/09/04 03:09:07;;;;;;;6.85;6.10;;;16.40;99.90;;;;;;4973052;28;20106;-85
2023/09/04 03:11:33;;;;;;;6.93;6.28;;;17.30;99.90;;;;;;4971925;28;20031;-86
2023/09/04 03:13:58;;;;;;;7.82;7.22;;;16.30;99.90;;;;;;4972437;28;20023;-86
2023/09/04 03:16:25;;;;;;;7.20;6.60;;;16.40;99.90;;;;;;4981240;28;20046;-87
2023/09/04 03:18:50;;;;;;;7.05;6.43;;;16.20;99.90;;;;;;4991554;28;20030;-86
2023/09/04 03:21:16;;;;;;;9.95;6.50;;;16.20;99.90;;;;;;4992725;28;20402;-86
2023/09/04 03:23:41;;;;;;;7.70;7.07;;;16.30;99.90;;;;;;4992048;28;20394;-84
2023/09/04 03:26:07;;;;;;;7.57;6.82;;;16.90;99.90;;;;;;4991964;28;20061;-86
2023/09/04 03:28:33;;;;;;;6.40;5.90;;;16.10;99.90;;;;;;5003634;28;20201;-85
2023/09/04 03:30:59;;;;;;;7.13;6.47;;;16.10;99.90;;;;;;4989858;28;20388;-87
2023/09/04 03:33:24;;;;;;;8.27;7.50;;;16.60;99.90;;;;;;4973438;28;20027;-86
2023/09/04 03:35:50;;;;;;;7.63;6.93;;;16.00;99.90;;;;;;4982849;28;20029;-87
2023/09/04 03:38:16;;;;;;;7.50;6.90;;;16.00;99.90;;;;;;4986160;28;20034;-86
2023/09/04 03:40:41;;;;;;;7.43;6.78;;;16.00;99.90;;;;;;4975540;28;20034;-87
2023/09/04 03:43:07;;;;;;;7.65;6.70;;;16.70;99.90;;;;;;4982540;28;20054;-87
2023/09/04 03:45:33;;;;;;;7.68;6.97;;;16.00;99.90;;;;;;4991678;28;20030;-87
2023/09/04 03:47:59;;;;;;;6.78;6.28;;;16.00;99.90;;;;;;4992373;28;20061;-87
2023/09/04 03:50:25;;;;;;;6.47;5.97;;;16.00;99.90;;;;;;4981449;28;20050;-87
2023/09/04 03:52:51;;;;;;;8.65;6.70;;;16.70;99.90;;;;;;4971747;28;20090;-86
2023/09/04 03:55:16;;;;;;;7.95;7.25;;;15.90;99.90;;;;;;4972711;28;20078;-86
2023/09/04 03:57:46;;;;;;;7.57;6.72;;;16.00;99.90;;;;;;4972482;28;20114;-87
2023/09/04 04:00:16;;;;;;;11.25;7.28;;;15.90;99.90;;;;;;4972281;28;20070;-86
2023/09/04 04:02:46;;;;;;;7.32;6.72;;;15.90;99.90;;;;;;4972778;28;20095;-86
2023/09/04 04:05:13;;;;;;;7.93;7.22;;;15.80;99.90;;;;;;4983548;28;20039;-86
2023/09/04 04:07:39;;;;;;;7.63;6.85;;;16.60;99.90;;;;;;4971510;28;20035;-86
2023/09/04 04:10:06;;;;;;;7.82;7.13;;;15.80;99.90;;;;;;4972621;28;20455;-87
2023/09/04 04:12:32;;;;;;;8.10;6.95;;;15.90;99.90;;;;;;4979087;28;20030;-86
2023/09/04 04:14:59;;;;;;;7.40;6.82;;;15.90;99.90;;;;;;4990831;28;20026;-86
2023/09/04 04:17:25;;;;;;;7.90;7.30;;;16.40;99.90;;;;;;4981652;28;20030;-86
2023/09/04 04:19:53;;;;;;;8.68;7.97;;;15.80;99.90;;;;;;4971819;28;20031;-86
2023/09/04 04:22:20;;;;;;;9.50;6.93;;;15.80;99.90;;;;;;4971959;28;20023;-86
2023/09/04 04:24:46;;;;;;;9.27;8.35;;;16.50;99.90;;;;;;4986919;28;20062;-87
2023/09/04 04:27:12;;;;;;;9.07;7.63;;;15.80;99.90;;;;;;4990647;28;20395;-87
2023/09/04 04:29:38;;;;;;;9.45;8.57;;;15.80;99.90;;;;;;4997406;28;20085;-87
2023/09/04 04:32:07;;;;;;;8.35;7.63;;;15.80;99.90;;;;;;5011081;28;20042;-86
2023/09/04 04:34:33;;;;;;;8.88;8.18;;;15.80;99.90;;;;;;4994652;28;20137;-88
2023/09/04 04:36:59;;;;;;;11.40;7.57;;;15.90;99.90;;;;;;4995196;28;20050;-87
2023/09/04 04:39:25;;;;;;;8.60;7.55;;;15.80;99.90;;;;;;4995344;28;20030;-87
2023/09/04 04:42:00;;;;;;;8.77;8.02;;;15.90;99.90;;;;;;4994167;28;20026;-87
2023/09/04 04:44:26;;;;;;;8.00;7.22;;;16.40;99.90;;;;;;4995332;28;20050;-87
2023/09/04 04:46:54;;;;;;;7.93;6.97;;;15.90;99.90;;;;;;4992763;28;20064;-86
2023/09/04 04:49:21;;;;;;;7.13;6.53;;;15.60;99.90;;;;;;4980848;28;20022;-86
2023/09/04 04:51:47;;;;;;;8.63;7.38;;;15.70;99.90;;;;;;4975175;28;20038;-86
2023/09/04 04:54:13;;;;;;;8.57;7.88;;;16.30;99.90;;;;;;4975592;28;20023;-86
2023/09/04 04:56:39;;;;;;;8.23;7.53;;;16.70;99.90;;;;;;4974600;28;20118;-85
2023/09/04 04:59:05;;;;;;;8.05;7.20;;;15.80;99.90;;;;;;4975513;28;20019;-86
2023/09/04 05:01:31;;;;;;;8.57;7.88;;;15.80;99.90;;;;;;4975097;28;20106;-86
2023/09/04 05:03:59;;;;;;;6.78;6.22;;;15.90;99.90;;;;;;4974704;28;20035;-90
2023/09/04 05:06:28;;;;;;;8.55;6.65;;;15.90;99.90;;;;;;4973718;28;20063;-87
2023/09/04 05:08:53;;;;;;;7.85;7.15;;;17.10;99.90;;;;;;4991733;28;20030;-86
2023/09/04 05:11:19;;;;;;;7.68;6.88;;;15.90;99.90;;;;;;4993408;28;20423;-86
2023/09/04 05:13:44;;;;;;;7.75;7.05;;;15.90;99.90;;;;;;4991040;28;20026;-86
2023/09/04 05:16:10;;;;;;;7.68;7.05;;;15.90;99.90;;;;;;4993726;28;20026;-86
2023/09/04 05:18:36;;;;;;;7.28;6.47;;;15.80;99.90;;;;;;4991115;28;20525;-86
2023/09/04 05:21:05;;;;;;;7.50;6.90;;;15.90;99.90;;;;;;4993974;28;20484;-87
2023/09/04 05:23:32;;;;;;;11.75;7.68;;;15.90;99.90;;;;;;4989096;28;20022;-85
2023/09/04 05:25:57;;;;;;;10.30;8.25;;;15.90;99.90;;;;;;4992758;28;20512;-86
2023/09/04 05:28:23;;;;;;;8.85;8.07;;;15.80;99.90;;;;;;4991388;28;20122;-86
2023/09/04 05:30:49;;;;;;;9.27;8.57;;;16.00;99.90;;;;;;4992848;28;20072;-86
2023/09/04 05:33:14;;;;;;;14.07;9.45;;;16.90;99.90;;;;;;5005206;28;20050;-86
2023/09/04 05:35:40;;;;;;;10.32;9.32;;;16.00;99.90;;;;;;4996511;28;20030;-87
2023/09/04 05:38:07;;;;;;;9.82;8.93;;;16.00;99.90;;;;;;4992941;28;20026;-86
2023/09/04 05:40:32;;;;;;;9.65;8.73;;;16.30;99.90;;;;;;4992761;28;20105;-86
2023/09/04 05:42:58;;;;;;;9.65;8.77;;;16.10;99.90;;;;;;4991195;28;20109;-86
2023/09/04 05:45:24;;;;;;;10.40;9.35;;;16.10;99.90;;;;;;4991518;28;20029;-86
2023/09/04 05:47:51;;;;;;;14.52;9.30;;;16.20;99.90;;;;;;4992679;28;20030;-86
2023/09/04 05:50:17;;;;;;;10.27;9.38;;;16.30;99.90;;;;;;4992348;28;20371;-86
2023/09/04 05:52:43;;;;;;;10.40;9.50;;;16.20;99.90;;;;;;4991534;28;20498;-86
2023/09/04 05:55:08;;;;;;;10.00;9.20;;;16.70;99.90;;;;;;4983101;28;20031;-86
2023/09/04 05:57:35;;;;;;;9.73;8.75;;;16.20;99.90;;;;;;4980385;28;20026;-86
2023/09/04 06:00:01;;;;;;;9.90;8.93;;;16.20;99.90;;;;;;4993415;28;20022;-85
2023/09/04 06:02:27;;;;;;;10.35;9.27;;;16.20;99.90;;;;;;4987804;28;20105;-86
2023/09/04 06:04:53;;;;;;;10.10;9.30;;;16.10;99.90;;;;;;4980254;28;20033;-86
2023/09/04 06:07:19;;;;;;;11.07;10.07;;;16.20;99.90;;;;;;4973132;28;20061;-86
2023/09/04 06:09:44;;;;;;;10.75;9.73;;;16.20;99.90;;;;;;4979639;28;20383;-86
2023/09/04 06:12:14;;;;;;;15.70;10.43;;;16.10;99.90;;;;;;4977715;28;20073;-86
2023/09/04 06:14:40;;;;;;;10.63;9.60;;;16.10;99.90;;;;;;4973068;28;20026;-86
2023/09/04 06:17:06;;;;;;;10.80;9.90;;;16.20;99.90;;;;;;4976311;28;20031;-86
2023/09/04 06:19:31;;;;;;;11.02;9.93;;;16.10;99.90;;;;;;4982010;28;20471;-87
2023/09/04 06:21:58;;;;;;;13.55;12.10;;;16.20;99.90;;;;;;4978619;28;20363;-86
2023/09/04 06:24:24;;;;;;;14.07;11.82;;;16.50;99.90;;;;;;4982557;28;20505;-86
2023/09/04 06:26:50;;;;;;;15.30;12.40;;;16.20;99.90;;;;;;4975419;28;20046;-86
2023/09/04 06:29:20;;;;;;;13.70;12.48;;;16.60;99.90;;;;;;4977464;28;20050;-87
2023/09/04 06:31:46;;;;;;;13.77;12.10;;;16.20;99.90;;;;;;4984612;28;20026;-87
2023/09/04 06:34:12;;;;;;;14.10;12.63;;;16.20;99.90;;;;;;4989679;28;20026;-89
2023/09/04 06:36:38;;;;;;;15.38;13.02;;;16.30;99.90;;;;;;5002315;28;20019;-88
2023/09/04 06:39:04;;;;;;;14.15;12.73;;;16.30;99.90;;;;;;4992484;28;20149;-89
2023/09/04 06:41:32;;;;;;;16.88;14.23;;;16.30;99.90;;;;;;4983039;28;20037;-87
2023/09/04 06:43:57;;;;;;;16.70;13.70;;;16.30;99.90;;;;;;4988980;28;20478;-86
2023/09/04 06:46:23;;;;;;;14.40;13.00;;;16.40;99.90;;;;;;4991762;28;20054;-88
2023/09/04 06:48:49;;;;;;;16.20;13.65;;;16.40;99.90;;;;;;4992112;28;20034;-90
2023/09/04 06:51:16;;;;;;;16.20;13.20;;;16.40;99.90;;;;;;4985922;28;20027;-87
2023/09/04 06:53:42;;;;;;;14.82;13.32;;;16.50;99.90;;;;;;4977657;28;20042;-89
2023/09/04 06:56:07;;;;;;;16.08;14.57;;;16.50;99.90;;;;;;4988749;28;20027;-89
2023/09/04 06:58:55;;;;;;;18.63;13.57;;;16.50;99.90;;;;;;4993285;28;20026;-90
2023/09/04 07:01:20;;;;;;;16.38;13.07;;;16.50;99.90;;;;;;4983342;28;20027;-90
2023/09/04 07:04:01;;;;;;;15.18;13.75;;;16.00;99.90;;;;;;4973004;28;20053;-87
2023/09/04 07:06:26;;;;;;;14.93;13.43;;;16.50;99.90;;;;;;4984445;28;20050;-88
2023/09/04 07:08:53;;;;;;;15.30;13.85;;;17.00;99.90;;;;;;4972986;28;20099;-88
2023/09/04 07:11:31;;;;;;;14.98;13.52;;;17.20;99.90;;;;;;4984269;28;20069;-87
2023/09/04 07:14:17;;;;;;;16.20;14.02;;;17.20;99.90;;;;;;4979146;28;20031;-90
2023/09/04 07:16:42;;;;;;;15.77;14.18;;;17.00;99.90;;;;;;4978132;28;20129;-90
2023/09/04 07:19:08;;;;;;;14.50;13.02;;;16.70;99.90;;;;;;4992943;28;20050;-89
2023/09/04 07:21:35;;;;;;;15.10;13.63;;;16.80;99.90;;;;;;4987925;28;20034;-88
2023/09/04 07:24:03;;;;;;;14.65;13.25;;;17.50;99.90;;;;;;4989211;28;20037;-87
2023/09/04 07:26:29;;;;;;;16.38;13.73;;;16.90;99.90;;;;;;4989707;28;20597;-86
2023/09/04 07:28:55;;;;;;;15.27;13.88;;;16.80;99.90;;;;;;4991875;28;20029;-86
2023/09/04 07:31:21;;;;;;;16.90;14.88;;;16.90;99.90;;;;;;4980512;28;20023;-86
2023/09/04 07:33:48;;;;;;;19.48;15.00;;;17.00;99.90;;;;;;4990933;28;20125;-86
2023/09/04 07:36:14;;;;;;;25.90;15.38;;;17.00;99.90;;;;;;4989998;28;20026;-86
2023/09/04 07:38:40;;;;;;;17.67;14.00;;;17.70;99.90;;;;;;4990686;28;20033;-86
2023/09/04 07:41:06;;;;;;;14.90;13.50;;;17.10;99.90;;;;;;4986347;28;20052;-86
2023/09/04 07:43:32;;;;;;;15.75;14.13;;;17.10;99.90;;;;;;4991022;28;20581;-86
2023/09/04 07:45:58;;;;;;;13.90;12.70;;;17.10;99.90;;;;;;4985227;28;20553;-85
2023/09/04 07:48:24;;;;;;;15.88;13.95;;;17.20;99.90;;;;;;4978951;28;20466;-86
2023/09/04 07:50:52;;;;;;;14.20;12.93;;;17.20;99.90;;;;;;4973066;28;20081;-86
2023/09/04 07:53:18;;;;;;;15.88;14.23;;;18.20;99.90;;;;;;4992231;28;20030;-86
2023/09/04 07:55:45;;;;;;;14.02;12.68;;;17.40;99.90;;;;;;4988659;28;20053;-86
2023/09/04 07:58:10;;;;;;;16.17;14.57;;;17.40;99.90;;;;;;4982536;28;20407;-86
2023/09/04 08:00:36;;;;;;;15.68;13.40;;;17.40;99.90;;;;;;4995336;28;20485;-85
2023/09/04 08:03:03;;;;;;;15.02;13.65;;;17.50;99.90;;;;;;4996424;28;20394;-85
2023/09/04 08:05:29;;;;;;;17.88;13.93;;;17.50;99.90;;;;;;4996119;28;20054;-86
2023/09/04 08:07:54;;;;;;;16.55;14.27;;;17.50;99.90;;;;;;4992297;28;20423;-86
2023/09/04 08:10:20;;;;;;;15.90;14.40;;;17.60;99.90;;;;;;4985128;28;20130;-86
2023/09/04 08:12:45;;;;;;;16.20;13.90;;;17.60;99.90;;;;;;4992269;28;20026;-85
2023/09/04 08:15:11;;;;;;;16.02;13.43;;;17.60;99.90;;;;;;4996112;28;20391;-86
2023/09/04 08:17:36;;;;;;;16.38;13.82;;;17.70;99.90;;;;;;4983450;28;20043;-86
2023/09/04 08:20:02;;;;;;;16.90;15.25;;;17.80;99.90;;;;;;4975715;28;20062;-86
2023/09/04 08:22:28;;;;;;;16.90;15.20;;;17.90;99.90;;;;;;4985901;28;20031;-86
2023/09/04 08:24:54;;;;;;;14.65;13.30;;;17.90;99.90;;;;;;4984785;28;20034;-88
2023/09/04 08:27:20;;;;;;;18.45;14.35;;;18.00;99.90;;;;;;5001544;28;20050;-85
2023/09/04 08:29:45;;;;;;;20.10;14.05;;;18.10;99.90;;;;;;4989089;28;20386;-84
2023/09/04 08:32:11;;;;;;;15.13;13.65;;;18.10;99.90;;;;;;4989722;28;20425;-83
2023/09/04 08:34:36;;;;;;;15.48;13.95;;;18.50;99.90;;;;;;4982540;28;20548;-82
2023/09/04 08:37:02;;;;;;;16.23;13.23;;;18.20;99.90;;;;;;4989040;28;20034;-84
2023/09/04 08:39:28;;;;;;;14.32;13.07;;;18.30;99.90;;;;;;4977957;28;20031;-83
2023/09/04 08:41:55;;;;;;;14.43;13.13;;;18.30;99.90;;;;;;4989045;28;20058;-82
2023/09/04 08:44:20;;;;;;;15.57;14.07;;;19.10;99.90;;;;;;4983294;28;20512;-82
2023/09/04 08:46:49;;;;;;;13.48;12.27;;;18.40;99.90;;;;;;4989502;28;20046;-82
2023/09/04 08:49:16;;;;;;;15.65;13.98;;;18.60;99.90;;;;;;4989664;28;20050;-83
2023/09/04 08:51:43;;;;;;;15.18;13.70;;;19.00;99.90;;;;;;4986396;28;20034;-82
2023/09/04 08:54:10;;;;;;;14.75;13.27;;;18.70;99.90;;;;;;4992135;28;20030;-83
2023/09/04 08:56:36;;;;;;;14.55;13.02;;;18.80;99.90;;;;;;4988559;28;20031;-83
2023/09/04 08:59:02;;;;;;;16.67;13.00;;;18.70;99.90;;;;;;4984447;28;20090;-82
2023/09/04 09:01:33;;;;;;;15.18;13.45;;;18.80;99.90;;;;;;4990226;28;20027;-83
2023/09/04 09:04:01;;;;;;;14.80;13.32;;;18.80;99.90;;;;;;4990402;28;20104;-82
2023/09/04 09:06:27;;;;;;;16.05;12.32;;;18.70;99.90;;;;;;4983637;28;20054;-83
2023/09/04 09:08:56;;;;;;;16.23;13.15;;;18.90;99.90;;;;;;4986470;28;20382;-82
2023/09/04 09:11:22;;;;;;;13.02;11.93;;;18.90;99.90;;;;;;4986278;28;20049;-82
2023/09/04 09:13:48;;;;;;;14.05;12.75;;;19.00;99.90;;;;;;4990370;28;20057;-82
2023/09/04 09:16:20;;;;;;;14.18;12.88;;;19.30;99.90;;;;;;4979715;28;20053;-83
2023/09/04 09:18:47;;;;;;;13.88;12.57;;;19.10;99.90;;;;;;4983712;28;20034;-83
2023/09/04 09:21:24;;;;;;;16.02;12.48;;;19.10;99.90;;;;;;4982610;28;20054;-83
2023/09/04 09:24:07;;;;;;;14.30;12.80;;;19.20;99.90;;;;;;4987563;28;20583;-83
2023/09/04 09:26:33;;;;;;;13.48;12.18;;;19.20;99.90;;;;;;4977942;28;20050;-83
2023/09/04 09:29:02;;;;;;;13.77;12.43;;;19.40;99.90;;;;;;4989391;28;20033;-83
2023/09/04 09:31:29;;;;;;;15.17;13.57;;;19.30;99.90;;;;;;4990581;28;20060;-82
2023/09/04 09:33:55;;;;;;;12.48;11.35;;;19.30;99.90;;;;;;4988954;28;20022;-82
2023/09/04 09:36:21;;;;;;;13.02;11.52;;;19.50;99.90;;;;;;4980433;28;20047;-82
2023/09/04 09:38:47;;;;;;;14.32;12.82;;;19.40;99.90;;;;;;4981539;28;20491;-83
2023/09/04 09:41:13;;;;;;;12.77;11.43;;;19.40;99.90;;;;;;4987101;28;20081;-83
2023/09/04 09:43:40;;;;;;;14.52;11.70;;;19.70;99.90;;;;;;4980873;28;20042;-82
2023/09/04 09:46:09;;;;;;;20.45;13.57;;;19.50;99.90;;;;;;4984385;28;20117;-83
2023/09/04 09:48:36;;;;;;;34.55;12.90;;;20.30;99.90;;;;;;4983678;28;20027;-87
2023/09/04 09:51:06;;;;;;;23.48;17.02;;;19.60;99.90;;;;;;4990389;28;20022;-86
2023/09/04 09:53:45;;;;;;;13.25;11.55;;;19.60;99.90;;;;;;4976520;28;20038;-87
2023/09/04 09:56:12;;;;;;;12.55;11.35;;;19.70;99.90;;;;;;4986536;28;20030;-86
2023/09/04 09:58:39;;;;;;;15.02;12.43;;;19.70;99.90;;;;;;4991577;28;20474;-86
2023/09/04 10:01:06;;;;;;;12.98;11.68;;;19.80;99.90;;;;;;4994193;28;20027;-86
2023/09/04 10:03:33;;;;;;;11.27;10.00;;;20.10;99.90;;;;;;4988310;28;20023;-85
2023/09/04 10:06:04;;;;;;;13.82;11.52;;;20.00;99.90;;;;;;4989771;28;20046;-85
2023/09/04 10:08:32;;;;;;;11.88;10.68;;;20.10;99.90;;;;;;4989688;28;20085;-84
2023/09/04 10:10:59;;;;;;;12.60;11.32;;;20.30;99.90;;;;;;4992439;28;20030;-86
2023/09/04 10:13:30;;;;;;;11.93;10.68;;;20.10;99.90;;;;;;4984851;28;20027;-85
2023/09/04 10:16:00;;;;;;;10.77;9.88;;;20.20;99.90;;;;;;4976471;28;20034;-85
2023/09/04 10:18:33;;;;;;;10.18;9.32;;;20.30;99.90;;;;;;4973829;28;20062;-85
2023/09/04 10:21:01;;;;;;;10.15;9.07;;;21.00;99.90;;;;;;4992223;28;20088;-86
2023/09/04 10:23:35;;;;;;;9.80;8.90;;;20.20;99.90;;;;;;4987222;28;20316;-86
2023/09/04 10:26:08;;;;;;;9.93;8.82;;;20.40;99.90;;;;;;4973198;28;20039;-86
2023/09/04 10:28:40;;;;;;;10.10;9.07;;;20.60;99.90;;;;;;4980537;28;20026;-85
2023/09/04 10:31:06;;;;;;;15.52;8.70;;;20.60;99.90;;;;;;4990192;28;20058;-85
2023/09/04 10:33:32;;;;;;;9.85;8.60;;;20.60;99.90;;;;;;4976367;28;20033;-85
2023/09/04 10:36:01;;;;;;;9.38;7.40;;;20.70;99.90;;;;;;4972227;28;20081;-85
2023/09/04 10:38:27;;;;;;;8.57;7.78;;;21.10;99.90;;;;;;4990422;28;20058;-86
2023/09/04 10:40:53;;;;;;;8.43;7.50;;;20.90;99.90;;;;;;4978958;28;20497;-83
2023/09/04 10:43:19;;;;;;;8.88;7.97;;;20.90;99.90;;;;;;4976434;28;20483;-85
2023/09/04 10:46:08;;;;;;;8.52;7.72;;;21.00;99.90;;;;;;4972718;28;20042;-86
2023/09/04 10:48:45;;;;;;;8.50;7.70;;;21.10;99.90;;;;;;4985932;28;20363;-85
2023/09/04 10:51:35;;;;;;;9.00;8.10;;;21.20;99.90;;;;;;4974983;28;20035;-85
2023/09/04 10:54:07;;;;;;;9.30;7.47;;;21.20;99.90;;;;;;4991179;28;20105;-86
2023/09/04 10:56:51;;;;;;;7.82;7.13;;;21.30;99.90;;;;;;4989584;28;20031;-85
2023/09/04 10:59:17;;;;;;;7.65;6.85;;;21.40;99.90;;;;;;4978489;28;20022;-82
2023/09/04 11:01:42;;;;;;;7.70;6.72;;;21.40;99.90;;;;;;4972874;28;20094;-87
2023/09/04 11:04:08;;;;;;;7.95;7.10;;;21.60;99.90;;;;;;4973529;28;20026;-88
2023/09/04 11:06:36;;;;;;;7.63;6.88;;;21.50;99.90;;;;;;4984528;28;20054;-89
2023/09/04 11:09:03;;;;;;;7.78;7.18;;;21.60;99.90;;;;;;4992188;28;20031;-89
2023/09/04 11:11:29;;;;;;;7.32;6.60;;;21.60;99.90;;;;;;4973819;28;20113;-90
2023/09/04 11:14:00;;;;;;;7.10;6.13;;;21.60;99.90;;;;;;4990969;28;20069;-90
2023/09/04 11:16:27;;;;;;;7.57;6.88;;;21.80;99.90;;;;;;4982917;28;20379;-90
2023/09/04 11:19:13;;;;;;;7.60;6.63;;;21.70;99.90;;;;;;4973607;28;20057;-89
2023/09/04 11:21:43;;;;;;;6.78;6.18;;;21.80;99.90;;;;;;4974494;28;20162;-89
2023/09/04 11:24:09;;;;;;;;;;;21.90;99.90;;;;;;5018791;23;20051;-89
2023/09/04 11:26:55;;;;;;;6.25;5.65;;;21.90;99.90;;;;;;4973623;28;19918;-89
2023/09/04 11:29:23;;;;;;;6.15;5.65;;;21.90;99.90;;;;;;4957046;28;20408;-88
2023/09/04 11:31:48;;;;;;;6.72;6.13;;;22.00;99.90;;;;;;4954602;29;20577;-89
2023/09/04 11:34:21;;;;;;;5.78;5.28;;;22.00;99.90;;;;;;4957704;28;20118;-86
2023/09/04 11:36:47;;;;;;;6.25;4.88;;;22.10;99.90;;;;;;4957459;29;20015;-86
2023/09/04 11:39:13;;;;;;;6.85;4.97;;;22.10;99.90;;;;;;4974849;28;20034;-90
2023/09/04 11:41:39;;;;;;;5.95;5.30;;;22.20;99.90;;;;;;4963189;28;20035;-92
2023/09/04 11:44:06;;;;;;;5.50;4.95;;;22.30;99.90;;;;;;4971226;28;20038;-86
2023/09/04 11:46:33;;;;;;;5.80;4.57;;;22.40;99.90;;;;;;4971343;28;20066;-86
2023/09/04 11:49:01;;;;;;;7.90;4.68;;;22.40;99.90;;;;;;4981813;28;20019;-90
2023/09/04 11:51:46;;;;;;;6.50;4.30;;;22.60;99.90;;;;;;5140880;23;20576;-89
2023/09/04 11:54:11;;;;;;;4.85;4.43;;;22.50;99.90;;;;;;5031132;28;20062;-93
2023/09/04 11:56:37;;;;;;;5.28;4.43;;;22.50;99.90;;;;;;5039857;28;20481;-88
2023/09/04 11:59:18;;;;;;;6.25;4.72;;;22.60;99.90;;;;;;5030449;28;20034;-90
2023/09/04 12:01:45;;;;;;;5.03;4.63;;;22.70;99.90;;;;;;5038337;28;20028;-89
2023/09/04 12:04:10;;;;;;;4.22;3.83;;;22.70;99.90;;;;;;5031955;28;20033;-90
2023/09/04 12:06:37;;;;;;;6.60;3.95;;;22.90;99.90;;;;;;5032732;28;20539;-89
2023/09/04 12:09:05;;;;;;;4.13;3.72;;;22.80;99.90;;;;;;5033517;28;20026;-90
2023/09/04 12:11:30;;;;;;;5.25;4.85;;;22.90;99.90;;;;;;5037358;28;20053;-89
2023/09/04 12:14:05;;;;;;;5.95;4.53;;;22.90;99.90;;;;;;5039213;28;20040;-89
2023/09/04 12:16:53;;;;;;;6.15;4.60;;;23.00;99.90;;;;;;5027184;28;20121;-89
2023/09/04 12:19:23;;;;;;;5.40;4.90;;;23.10;99.90;;;;;;5030498;28;20396;-89
2023/09/04 12:24:33;;;;;;;6.65;5.18;;;23.10;99.90;;;;;;5022866;28;20044;-89
2023/09/04 12:26:58;;;;;;;9.10;5.13;;;23.20;99.90;;;;;;5025606;28;20042;-88
2023/09/04 12:29:24;;;;;;;7.40;5.60;;;23.40;99.90;;;;;;5026699;28;20484;-86
2023/09/04 12:31:58;;;;;;;4.85;4.45;;;23.30;99.90;;;;;;5034460;28;20041;-89
2023/09/04 12:34:35;;;;;;;5.95;5.32;;;23.30;99.90;;;;;;5025748;28;20052;-90
2023/09/04 12:37:18;;;;;;;8.30;5.00;;;23.40;99.90;;;;;;5021433;28;20024;-91
2023/09/04 12:39:43;;;;;;;4.82;4.43;;;23.40;99.90;;;;;;5030313;28;20045;-92
2023/09/04 12:42:12;;;;;;;4.63;4.25;;;23.50;99.90;;;;;;5034719;28;20084;-91
2023/09/04 12:45:00;;;;;;;8.90;4.90;;;23.50;99.90;;;;;;5030690;28;20117;-93